Weather observations for the past three days for
St. Paul Island, St. Paul Island Airport
| Date | Time (akdt) | Wind (kph) | Vis. (km) | Weather | Sky Cond. | Temperature (ºC) | Relative Humidity | Wind Chill (°C) | Heat Index (°C) | Pressure | Precipitation (cm) | ||||||
|---|---|---|---|---|---|---|---|---|---|---|---|---|---|---|---|---|---|
| Air | Dwpt | 6 hour | altimeter (cm) | sea level (mb) | 1 hr | 3 hr | 6 hr | ||||||||||
| Max. | Min. | ||||||||||||||||
| 07 | 13:53 | E 20 | 8.05 | Overcast with Haze | BKN013 OVC019 | 0.6 | -2.2 | 82% | -4 | 76.3 | 1017.3 | ||||||
| 07 | 12:53 | E 24 | 16.09 | Overcast | OVC016 | 0.6 | -3.9 | 72% | -5 | 76.3 | 1017.3 | ||||||
| 07 | 11:53 | E 20 | 16.09 | Overcast | OVC016 | 0 | -3.9 | 75% | -5 | 76.3 | 1017.3 | ||||||
| 07 | 10:53 | E 20 | 16.09 | Overcast | OVC014 | -0.6 | -3.9 | 79% | -6 | 76.3 | 1017.4 | ||||||
| 07 | 09:53 | E 20 | 12.87 | Overcast | OVC015 | -0.6 | -3.3 | -0.6 | -1.1 | 82% | -6 | 76.3 | 1017.4 | ||||
| 07 | 08:53 | E 26 | 11.27 | Light Snow | OVC014 | -1.1 | -3.9 | 82% | -7 | 76.3 | 1017.2 | ||||||
| 07 | 07:53 | E 24 | 16.09 | Overcast | OVC014 | -1.1 | -4.4 | 79% | -7 | 76.28 | 1017.1 | ||||||
| 07 | 06:53 | E 24 | 16.09 | Overcast | OVC014 | -1.1 | -4.4 | 79% | -7 | 76.3 | 1017.3 | ||||||
| 07 | 05:53 | E 20 | 16.09 | Overcast | OVC013 | -1.1 | -3.9 | 82% | -6 | 76.33 | 1017.5 | ||||||
| 07 | 04:53 | E 20 | 16.09 | Overcast | OVC016 | -1.1 | -4.4 | 79% | -6 | 76.33 | 1017.8 | ||||||
| 07 | 03:53 | E 20 | 16.09 | Overcast | OVC016 | -0.6 | -3.9 | 0 | -1.1 | 79% | -6 | 76.35 | 1018.0 | ||||
| 07 | 02:53 | E 19 | 11.27 | Overcast | OVC015 | -1.1 | -2.8 | 88% | -6 | 76.38 | 1018.3 | ||||||
| 07 | 01:53 | E 19 | 16.09 | Overcast | OVC013 | -1.1 | -3.9 | 82% | -6 | 76.35 | 1018.1 | ||||||
| 07 | 00:53 | E 19 | 16.09 | Overcast | OVC017 | -1.1 | -3.9 | 82% | -6 | 76.38 | 1018.2 | ||||||
| 06 | 23:53 | E 22 | 16.09 | Overcast | FEW013 OVC019 | -0.6 | -2.8 | 85% | -6 | 76.35 | 1018.0 | ||||||
| 06 | 22:53 | E 15 | 6.44 | Light Snow Fog/Mist | OVC016 | -1.1 | -2.8 | 88% | -5 | 76.35 | 1018.0 | ||||||
| 06 | 21:53 | E 13 | 16.09 | Overcast | OVC017 | -0.6 | -4.4 | 1.7 | -0.6 | 76% | -4 | 76.35 | 1018.1 | ||||
| 06 | 20:53 | E 17 | 16.09 | Overcast | OVC021 | 0 | -3.9 | 75% | -4 | 76.38 | 1018.3 | ||||||
| 06 | 19:53 | E 20 | 16.09 | Overcast | FEW013 OVC022 | 0.6 | -3.9 | 72% | -4 | 76.35 | 1018.1 | ||||||
| 06 | 18:53 | E 17 | 16.09 | Mostly Cloudy | FEW014 BKN022 | 1.7 | -3.3 | 70% | -2 | 76.35 | 1018.0 | ||||||
| 06 | 17:53 | E 19 | 16.09 | Overcast | OVC018 | 1.1 | -3.9 | 70% | -3 | 76.38 | 1018.2 | ||||||
| 06 | 16:53 | E 15 | 16.09 | Overcast | OVC019 | 1.1 | -4.4 | 67% | -3 | 76.4 | 1018.5 | ||||||
| 06 | 15:53 | E 17 | 16.09 | Overcast | OVC022 | 1.1 | -3.3 | 1.7 | 0 | 73% | -3 | 76.43 | 1018.9 | ||||
| 06 | 14:53 | E 19 | 16.09 | Overcast | OVC025 | 1.1 | -3.3 | 73% | -3 | 76.43 | 1019.1 | ||||||
| 06 | 13:53 | E 20 | 16.09 | Overcast | FEW012 OVC025 | 1.1 | -3.3 | 73% | -3 | 76.45 | 1019.4 | ||||||
| 06 | 12:53 | E 22 | 16.09 | Overcast | FEW012 OVC024 | 0.6 | -2.8 | 78% | -4 | 76.45 | 1019.5 | ||||||
| 06 | 11:53 | E 22 | 16.09 | Overcast | OVC023 | 0.6 | -2.8 | 78% | -4 | 76.48 | 1019.7 | ||||||
| 06 | 10:53 | E 17 | 16.09 | Overcast | OVC024 | 0 | -2.2 | 85% | -4 | 76.5 | 1019.9 | ||||||
| 06 | 09:53 | E 15 | 16.09 | Overcast | OVC023 | 0 | -2.2 | 0 | -4.4 | 85% | -4 | 76.5 | 1020.0 | ||||
| 06 | 08:53 | E 19 | 16.09 | Overcast | OVC024 | 0 | -2.2 | 85% | -5 | 76.5 | 1019.9 | ||||||
| 06 | 07:53 | E 15 | 16.09 | Overcast | OVC024 | -0.6 | -2.2 | 89% | -5 | 76.48 | 1019.7 | ||||||
| 06 | 06:53 | E 7 | 16.09 | Overcast | OVC025 | -0.6 | -1.7 | 92% | -3 | 76.48 | 1019.7 | ||||||
| 06 | 05:53 | E 13 | 16.09 | Overcast | OVC026 | -0.6 | -1.7 | 92% | -4 | 76.48 | 1019.7 | ||||||
| 06 | 04:53 | E 13 | 16.09 | Overcast | OVC025 | -0.6 | -1.7 | 92% | -4 | 76.5 | 1020.1 | ||||||
| 06 | 03:53 | NE 11 | 16.09 | Fair | CLR | -2.8 | -3.3 | 2.8 | -3.3 | 96% | -7 | 76.53 | 1020.3 | ||||
| 06 | 02:53 | NE 6 | 16.09 | Partly Cloudy | SCT026 | -1.1 | -1.7 | 96% | 76.53 | 1020.4 | |||||||
| 06 | 01:53 | Calm | 16.09 | Overcast | OVC026 | -2.2 | -2.8 | 96% | 76.56 | 1020.7 | |||||||
| 06 | 00:53 | N 6 | 16.09 | Mostly Cloudy | BKN018 | -2.2 | -3.3 | 92% | 76.56 | 1020.6 | |||||||
| 05 | 23:53 | Calm | 16.09 | Fair | CLR | -2.8 | -3.9 | 92% | 76.56 | 1020.8 | |||||||
| 05 | 22:53 | N 6 | 16.09 | Fair | CLR | 0.6 | -1.7 | 85% | 76.56 | 1020.8 | |||||||
| 05 | 21:53 | NW 11 | 16.09 | A Few Clouds | FEW018 | 2.8 | -1.7 | 5.6 | 2.8 | 73% | 0 | 76.58 | 1020.9 | ||||
| 05 | 20:53 | NW 13 | 16.09 | Mostly Cloudy | BKN020 | 3.9 | -1.7 | 67% | 1 | 76.56 | 1020.8 | ||||||
| 05 | 19:53 | NW 15 | 16.09 | Partly Cloudy | SCT023 | 4.4 | -2.2 | 63% | 1 | 76.56 | 1020.8 | ||||||
| 05 | 18:53 | NW 17 | 16.09 | Partly Cloudy | SCT024 | 4.4 | -2.2 | 63% | 1 | 76.56 | 1020.8 | ||||||
| 05 | 17:53 | NW 20 | 16.09 | Partly Cloudy | SCT023 SCT027 | 5 | -2.2 | 60% | 1 | 76.56 | 1020.8 | ||||||
| 05 | 16:53 | NW 22 | 16.09 | Mostly Cloudy | FEW023 SCT029 BKN045 | 5 | -2.2 | 60% | 1 | 76.58 | 1021.0 | ||||||
| 05 | 15:53 | NW 20 | 16.09 | Overcast | SCT019 OVC046 | 4.4 | -1.1 | 5.6 | 1.7 | 68% | 1 | 76.61 | 1021.2 | ||||
| 05 | 14:53 | NW 22 | 16.09 | Overcast | BKN019 BKN024 OVC048 | 4.4 | -1.7 | 65% | 0 | 76.61 | 1021.3 | ||||||
| 05 | 13:53 | NW 22 | 16.09 | Overcast | SCT018 SCT023 OVC049 | 5 | -1.1 | 65% | 1 | 76.61 | 1021.3 | ||||||
| 05 | 12:53 | N 24 | 16.09 | Mostly Cloudy | BKN015 BKN022 BKN050 | 4.4 | -0.6 | 70% | 0 | 76.61 | 1021.4 | ||||||
| 05 | 11:53 | NW 20 | 16.09 | Mostly Cloudy | BKN044 | 4.4 | -1.1 | 68% | 1 | 76.61 | 1021.3 | ||||||
| 05 | 10:53 | N 26 | 16.09 | Overcast | BKN010 OVC044 | 2.8 | -1.1 | 76% | -2 | 76.61 | 1021.5 | ||||||
| 05 | 09:53 | NW 19 | 16.09 | Overcast | BKN009 BKN018 OVC048 | 1.7 | -0.6 | 1.7 | 0.6 | 85% | -2 | 76.63 | 1021.6 | ||||
| 05 | 08:53 | N 17 | 16.09 | Overcast | OVC008 | 0.6 | -0.6 | 92% | -4 | 76.61 | 1021.4 | ||||||
| 05 | 07:53 | N 19 | 16.09 | Overcast | OVC008 | 0.6 | -1.1 | 89% | -4 | 76.58 | 1020.9 | ||||||
| 05 | 06:53 | N 20 | 16.09 | Overcast | OVC009 | 0.6 | -1.1 | 89% | -4 | 76.53 | 1020.5 | ||||||
| 05 | 05:53 | NW 24 | 16.09 | Overcast | OVC010 | 0.6 | -1.1 | 89% | -5 | 76.5 | 1020.0 | ||||||
| 05 | 04:53 | N 20 | 16.09 | Overcast | SCT011 BKN020 OVC042 | 0.6 | -1.1 | 89% | -4 | 76.48 | 1019.8 | ||||||
| 05 | 03:53 | N 19 | 16.09 | Overcast | OVC011 | 0.6 | -1.7 | 1.1 | 0 | 85% | -4 | 76.5 | 1020.0 | ||||
| 05 | 02:53 | N 30 | 16.09 | Overcast | OVC010 | 0.6 | -1.7 | 85% | -5 | 76.5 | 1020.0 | ||||||
| 05 | 01:53 | N 26 G 37 | 16.09 | Overcast | OVC011 | 0.6 | -1.1 | 89% | -5 | 76.5 | 1020.0 | ||||||
| 05 | 00:53 | N 26 | 16.09 | Overcast | SCT010 OVC015 | 0.6 | -1.7 | 85% | -5 | 76.5 | 1019.9 | ||||||
| 04 | 23:53 | N 30 | 16.09 | Overcast | BKN010 OVC014 | 0.6 | -1.1 | 89% | -5 | 76.48 | 1019.7 | ||||||
| 04 | 22:53 | N 30 G 46 | 16.09 | Overcast | OVC010 | 1.1 | -1.1 | 85% | -5 | 76.43 | 1019.2 | ||||||
| 04 | 21:53 | N 30 | 16.09 | Overcast | OVC014 | 1.1 | -1.1 | 3.9 | 1.1 | 85% | -5 | 76.43 | 1019.1 | ||||
| 04 | 20:53 | N 39 G 48 | 16.09 | Overcast and Breezy | OVC009 | 1.7 | -1.1 | 82% | -5 | 76.43 | 1018.8 | ||||||
| 04 | 19:53 | N 33 G 46 | 16.09 | A Few Clouds and Breezy | FEW012 | 2.2 | -1.1 | 79% | -3 | 76.4 | 1018.6 | ||||||
| 04 | 18:53 | N 37 G 48 | 16.09 | Overcast and Breezy | BKN014 OVC028 | 2.8 | -1.1 | 76% | -3 | 76.38 | 1018.3 | ||||||
| 04 | 17:53 | N 35 G 46 | 16.09 | Partly Cloudy and Breezy | SCT013 | 3.9 | -1.1 | 70% | -1 | 76.38 | 1018.4 | ||||||
| 04 | 16:53 | N 41 G 54 | 16.09 | Mostly Cloudy and Breezy | FEW012 BKN026 | 3.3 | -1.1 | 73% | -3 | 76.4 | 1018.6 | ||||||
| 04 | 15:53 | N 39 G 56 | 16.09 | Fair and Breezy | CLR | 3.9 | -1.7 | 3.9 | -1.7 | 67% | -2 | 76.4 | 1018.6 | ||||
| 04 | 14:53 | N 31 G 48 | 16.09 | Fair | CLR | 3.9 | -1.7 | 67% | -1 | 76.43 | 1018.9 | ||||||
| Date | Time (akdt) | Wind (kph) | Vis. (km) | Weather | Sky Cond. | Air | Dwpt | Max. | Min. | Relative Humidity | Wind Chill (°C) | Heat Index (°C) | altimeter (cm) | sea level (mb) | 1 hr | 3 hr | 6 hr |
| 6 hour | |||||||||||||||||
| Temperature (ºC) | Pressure | Precipitation (cm) | |||||||||||||||